Time;durP1;ratioP1;P1;durP2;ratioP2;P2;SDS_P1;SDS_P2;PMS_P1;PMS_P2;Temp;Humidity;BMP_temperature;BMP_pressure;BME280_temperature;BME280_humidity;BME280_pressure;Samples;Min_cycle;Max_cycle;Signal;HPM_P1;HPM_P2
2023/05/31 00:00:22;;;;;;;3.57;2.00;;;20.60;17.10;;;;;;10444997;28;20323;-73
2023/05/31 00:05:27;;;;;;;2.47;1.73;;;20.50;17.20;;;;;;10445448;28;20311;-72
2023/05/31 00:10:30;;;;;;;2.17;1.77;;;20.50;17.60;;;;;;10427147;28;20239;-71
2023/05/31 00:15:33;;;;;;;2.10;1.63;;;20.40;17.50;;;;;;10444496;28;20248;-73
2023/05/31 00:20:38;;;;;;;2.03;1.80;;;20.40;17.50;;;;;;10444835;28;20331;-72
2023/05/31 00:25:41;;;;;;;3.17;1.90;;;20.30;17.80;;;;;;10444321;28;20221;-73
2023/05/31 00:30:44;;;;;;;1.70;1.53;;;20.20;17.80;;;;;;10443785;28;20324;-72
2023/05/31 00:35:49;;;;;;;5.07;2.03;;;20.20;17.80;;;;;;10443526;28;20235;-73
2023/05/31 00:40:52;;;;;;;2.07;1.87;;;20.20;17.80;;;;;;10442660;28;20331;-73
2023/05/31 00:45:56;;;;;;;2.33;2.00;;;20.10;17.70;;;;;;10443537;28;20278;-72
2023/05/31 00:51:01;;;;;;;2.17;1.87;;;20.00;17.70;;;;;;10445479;28;20267;-73
2023/05/31 00:56:05;;;;;;;2.10;1.90;;;19.90;17.90;;;;;;10456175;28;20232;-73
2023/05/31 01:01:09;;;;;;;3.53;1.70;;;19.80;17.90;;;;;;10472184;28;20323;-73
2023/05/31 01:06:14;;;;;;;1.60;1.50;;;19.70;18.10;;;;;;10472053;28;20889;-72
2023/05/31 01:11:27;;;;;;;2.40;1.80;;;19.60;18.30;;;;;;10455860;28;20240;-73
2023/05/31 01:16:38;;;;;;;1.87;1.77;;;19.50;18.40;;;;;;10456675;28;20733;-73
2023/05/31 01:21:53;;;;;;;1.93;1.73;;;19.50;18.70;;;;;;10455480;28;20614;-73
2023/05/31 01:27:01;;;;;;;1.70;1.60;;;19.40;18.80;;;;;;10455890;28;20594;-73
2023/05/31 01:32:06;;;;;;;2.13;1.63;;;19.30;19.00;;;;;;10454741;28;20320;-73
2023/05/31 01:37:09;;;;;;;5.37;1.90;;;19.30;19.00;;;;;;10488148;28;20254;-73
2023/05/31 01:42:15;;;;;;;2.10;1.90;;;19.20;18.90;;;;;;10496234;28;20759;-73
2023/05/31 01:47:19;;;;;;;2.33;1.70;;;19.10;19.20;;;;;;10496879;28;20319;-73
2023/05/31 01:52:23;;;;;;;1.97;1.80;;;19.00;19.10;;;;;;10496246;28;20232;-73
2023/05/31 01:57:30;;;;;;;2.33;1.70;;;19.00;19.10;;;;;;10496254;28;20220;-74
2023/05/31 02:02:34;;;;;;;2.30;1.67;;;18.90;19.40;;;;;;10495288;28;20621;-73
2023/05/31 02:07:37;;;;;;;2.10;1.90;;;18.80;19.10;;;;;;10489491;28;20657;-72
2023/05/31 02:12:42;;;;;;;1.77;1.60;;;18.70;19.20;;;;;;10460690;28;20229;-73
2023/05/31 02:17:46;;;;;;;2.30;1.60;;;18.70;19.60;;;;;;10447990;28;20237;-71
2023/05/31 02:22:49;;;;;;;2.20;2.00;;;18.50;19.20;;;;;;10448217;28;20236;-72
2023/05/31 02:27:54;;;;;;;2.33;1.90;;;18.40;19.40;;;;;;10447811;28;20228;-73
2023/05/31 02:32:59;;;;;;;2.67;2.00;;;18.30;19.60;;;;;;10447039;28;20229;-71
2023/05/31 02:38:02;;;;;;;1.83;1.73;;;18.20;19.70;;;;;;10446478;28;20256;-73
2023/05/31 02:43:07;;;;;;;1.90;1.60;;;18.10;19.80;;;;;;10447013;28;20331;-73
2023/05/31 02:48:10;;;;;;;2.80;2.10;;;18.00;20.00;;;;;;10446583;28;20243;-73
2023/05/31 02:53:13;;;;;;;2.93;2.00;;;17.80;19.90;;;;;;10446799;28;20241;-73
2023/05/31 02:58:18;;;;;;;2.30;1.60;;;17.70;20.00;;;;;;10446200;28;20308;-73
2023/05/31 03:03:21;;;;;;;2.90;1.60;;;17.60;20.10;;;;;;10454402;28;20233;-73
2023/05/31 03:08:25;;;;;;;3.23;2.07;;;17.50;20.00;;;;;;10446044;28;20589;-72
2023/05/31 03:13:29;;;;;;;1.97;1.80;;;17.40;20.20;;;;;;10445375;28;20229;-73
2023/05/31 03:18:33;;;;;;;1.83;1.70;;;17.40;20.50;;;;;;10445195;28;20228;-72
2023/05/31 03:23:36;;;;;;;2.10;1.90;;;17.30;20.50;;;;;;10417277;28;20288;-72
2023/05/31 03:28:40;;;;;;;1.93;1.70;;;17.20;20.50;;;;;;10448893;28;20221;-72
2023/05/31 03:33:44;;;;;;;2.63;2.03;;;17.20;20.90;;;;;;10445442;28;20237;-73
2023/05/31 03:38:47;;;;;;;1.70;1.60;;;17.10;20.90;;;;;;10444805;28;20225;-73
2023/05/31 03:43:52;;;;;;;1.90;1.70;;;17.10;20.80;;;;;;10443998;28;20282;-73
2023/05/31 03:48:55;;;;;;;2.30;1.60;;;17.10;21.10;;;;;;10443895;28;20235;-72
2023/05/31 03:54:01;;;;;;;1.70;1.60;;;17.10;21.00;;;;;;10444279;28;20598;-73
2023/05/31 03:59:05;;;;;;;2.33;1.90;;;17.10;21.00;;;;;;10443731;28;20247;-71
2023/05/31 04:04:09;;;;;;;3.47;2.10;;;17.00;21.50;;;;;;10443566;28;20232;-73
2023/05/31 04:09:12;;;;;;;2.03;1.83;;;16.90;21.20;;;;;;10443520;28;20232;-72
2023/05/31 04:14:17;;;;;;;2.10;1.90;;;16.90;21.40;;;;;;10468476;28;20881;-73
2023/05/31 04:19:20;;;;;;;3.30;2.07;;;16.80;21.70;;;;;;10484507;28;20232;-73
2023/05/31 04:24:23;;;;;;;2.67;2.00;;;16.80;21.50;;;;;;10484674;28;20253;-72
2023/05/31 04:29:28;;;;;;;3.93;2.10;;;16.80;21.70;;;;;;10484822;28;20736;-72
2023/05/31 04:34:31;;;;;;;2.70;2.00;;;16.80;21.90;;;;;;10468149;28;20239;-72
2023/05/31 04:39:34;;;;;;;2.40;1.97;;;16.80;21.80;;;;;;10484858;28;20657;-73
2023/05/31 04:44:39;;;;;;;2.40;2.00;;;16.70;21.90;;;;;;10484975;28;20251;-71
2023/05/31 04:49:42;;;;;;;2.90;1.80;;;16.70;22.20;;;;;;10482644;28;20242;-72
2023/05/31 04:54:58;;;;;;;2.53;2.03;;;16.80;22.10;;;;;;10484378;28;20233;-72
2023/05/31 05:00:08;;;;;;;2.27;1.90;;;16.70;22.80;;;;;;10468938;28;20654;-73
2023/05/31 05:05:11;;;;;;;2.20;2.00;;;16.80;22.60;;;;;;10442375;28;20819;-72
2023/05/31 05:10:14;;;;;;;2.30;2.10;;;16.80;22.40;;;;;;10442463;28;20257;-73
2023/05/31 05:15:19;;;;;;;4.67;2.10;;;16.90;22.50;;;;;;10442624;28;20287;-73
2023/05/31 05:20:23;;;;;;;2.47;2.10;;;17.00;23.10;;;;;;10443300;28;20608;-73
2023/05/31 05:25:26;;;;;;;2.20;1.80;;;17.00;22.80;;;;;;10442398;28;20316;-73
2023/05/31 05:30:32;;;;;;;2.60;2.33;;;17.20;22.90;;;;;;10442968;28;20959;-72
2023/05/31 05:35:35;;;;;;;2.60;2.10;;;17.20;23.40;;;;;;10442582;28;20229;-71
2023/05/31 05:40:38;;;;;;;2.13;2.00;;;17.30;23.00;;;;;;10422755;28;20286;-73
2023/05/31 05:45:43;;;;;;;2.90;2.07;;;17.40;23.10;;;;;;10409433;28;20229;-75
2023/05/31 05:50:47;;;;;;;4.03;1.97;;;17.50;23.50;;;;;;10406305;28;20237;-76
2023/05/31 05:55:51;;;;;;;2.47;2.27;;;17.60;23.20;;;;;;10406374;28;20320;-75
2023/05/31 06:00:56;;;;;;;3.43;2.40;;;17.70;23.30;;;;;;10448076;28;20264;-79
2023/05/31 06:05:59;;;;;;;3.67;2.00;;;17.90;23.90;;;;;;10439919;28;20307;-76
2023/05/31 06:11:03;;;;;;;2.37;2.17;;;18.10;23.50;;;;;;10440451;28;20235;-77
2023/05/31 06:16:08;;;;;;;2.83;2.10;;;18.20;23.30;;;;;;10442175;28;20236;-76
2023/05/31 06:21:12;;;;;;;1.90;1.70;;;18.30;24.30;;;;;;10445464;28;20233;-75
2023/05/31 06:26:15;;;;;;;3.00;2.20;;;18.60;23.50;;;;;;10441075;28;20225;-76
2023/05/31 06:31:20;;;;;;;4.10;1.90;;;18.70;23.00;;;;;;10430149;28;20247;-76
2023/05/31 06:36:23;;;;;;;4.13;1.90;;;18.90;23.20;;;;;;10440659;28;20706;-73
2023/05/31 06:41:28;;;;;;;2.10;1.90;;;19.10;23.00;;;;;;10442454;28;20346;-73
2023/05/31 06:46:32;;;;;;;4.13;2.20;;;19.30;22.90;;;;;;10438567;28;21174;-74
2023/05/31 06:51:36;;;;;;;4.77;2.03;;;19.60;22.70;;;;;;10438848;28;20775;-74
2023/05/31 06:56:39;;;;;;;3.30;2.10;;;19.80;22.60;;;;;;10438537;28;20946;-74
2023/05/31 07:01:44;;;;;;;4.60;1.90;;;20.00;22.60;;;;;;10435731;28;20275;-73
2023/05/31 07:06:47;;;;;;;2.90;2.10;;;20.20;22.60;;;;;;10448029;28;20577;-81
2023/05/31 07:11:50;;;;;;;5.07;2.33;;;20.40;22.30;;;;;;10462926;28;20855;-72
2023/05/31 07:16:55;;;;;;;4.63;2.00;;;20.60;22.20;;;;;;10450779;28;20228;-73
2023/05/31 07:21:58;;;;;;;2.30;1.80;;;20.80;22.00;;;;;;10447546;28;20362;-72
2023/05/31 07:27:01;;;;;;;2.20;2.00;;;21.00;22.10;;;;;;10471176;28;20222;-72
2023/05/31 07:32:06;;;;;;;3.63;2.30;;;21.10;21.90;;;;;;10460476;28;20300;-74
2023/05/31 07:37:09;;;;;;;3.37;2.00;;;21.30;21.80;;;;;;10438717;28;20319;-74
2023/05/31 07:42:13;;;;;;;4.90;2.63;;;21.50;21.90;;;;;;10436581;28;20224;-73
2023/05/31 07:47:19;;;;;;;3.57;1.93;;;21.70;21.60;;;;;;10437915;28;20229;-79
2023/05/31 07:52:22;;;;;;;4.80;2.30;;;22.00;21.30;;;;;;10449133;28;20604;-74
2023/05/31 07:57:26;;;;;;;3.27;2.50;;;22.10;21.30;;;;;;10442461;28;20236;-74
2023/05/31 08:02:30;;;;;;;4.17;2.30;;;22.30;21.20;;;;;;10426587;28;20600;-73
2023/05/31 08:07:34;;;;;;;3.10;1.90;;;22.50;20.90;;;;;;10436472;28;20714;-73
2023/05/31 08:12:37;;;;;;;2.70;2.30;;;22.60;20.90;;;;;;10444211;28;20225;-74
2023/05/31 08:17:43;;;;;;;3.70;2.50;;;22.70;20.80;;;;;;10443176;28;20789;-73
2023/05/31 08:22:46;;;;;;;2.63;1.90;;;22.90;20.60;;;;;;10434220;28;20228;-74
2023/05/31 08:27:50;;;;;;;5.43;2.50;;;23.00;20.70;;;;;;10436431;28;20794;-75
2023/05/31 08:32:56;;;;;;;3.70;2.20;;;23.20;20.60;;;;;;10437607;28;20255;-75
2023/05/31 08:38:00;;;;;;;2.73;2.30;;;23.30;20.30;;;;;;10431731;28;20232;-75
2023/05/31 08:43:07;;;;;;;3.10;2.20;;;23.50;20.60;;;;;;10434669;28;20221;-73
2023/05/31 08:48:17;;;;;;;3.23;2.03;;;23.70;20.40;;;;;;10436045;28;20798;-72
2023/05/31 08:53:24;;;;;;;4.03;2.27;;;23.90;19.80;;;;;;10445273;28;20235;-74
2023/05/31 08:58:28;;;;;;;2.57;2.30;;;24.10;20.10;;;;;;10439168;28;20225;-73
2023/05/31 09:03:33;;;;;;;3.30;2.30;;;24.40;20.10;;;;;;10432936;28;20224;-72
2023/05/31 09:08:36;;;;;;;4.17;2.43;;;24.50;19.70;;;;;;10438352;28;20228;-74
2023/05/31 09:13:39;;;;;;;4.17;2.50;;;24.70;19.70;;;;;;10441663;28;20224;-73
2023/05/31 09:18:44;;;;;;;2.90;2.40;;;24.90;19.60;;;;;;10442669;28;20236;-73
2023/05/31 09:23:53;;;;;;;3.73;2.13;;;25.00;19.20;;;;;;10454492;28;20255;-72
2023/05/31 09:28:57;;;;;;;5.97;2.70;;;25.20;18.60;;;;;;10443423;28;20619;-75
2023/05/31 09:34:01;;;;;;;3.40;2.50;;;25.30;18.70;;;;;;10435855;28;20316;-75
2023/05/31 09:39:08;;;;;;;4.50;2.60;;;25.40;18.70;;;;;;10452523;28;20244;-75
2023/05/31 09:44:11;;;;;;;3.10;2.60;;;25.50;18.80;;;;;;10418464;28;20225;-82
2023/05/31 09:49:16;;;;;;;2.67;2.30;;;25.60;18.80;;;;;;10430485;28;20226;-77
2023/05/31 09:54:22;;;;;;;3.80;2.30;;;25.70;18.50;;;;;;10438296;28;20243;-79
2023/05/31 09:59:27;;;;;;;4.77;2.83;;;25.90;18.10;;;;;;10441261;28;20237;-75
2023/05/31 10:04:33;;;;;;;3.27;2.43;;;26.00;17.90;;;;;;10445468;28;20640;-75
2023/05/31 10:09:37;;;;;;;3.03;2.07;;;26.10;17.70;;;;;;10425882;28;20231;-75
2023/05/31 10:14:44;;;;;;;3.40;2.40;;;26.10;17.30;;;;;;10436490;28;21016;-77
2023/05/31 10:19:54;;;;;;;2.47;2.27;;;26.20;17.10;;;;;;10434205;28;20243;-76
2023/05/31 10:25:04;;;;;;;3.60;2.13;;;26.30;15.70;;;;;;10431684;28;20225;-77
2023/05/31 10:30:11;;;;;;;2.80;2.10;;;26.40;15.40;;;;;;10435654;28;20783;-76
2023/05/31 10:35:16;;;;;;;2.20;1.97;;;26.50;16.10;;;;;;10435449;28;20260;-76
2023/05/31 10:40:25;;;;;;;3.97;2.30;;;26.60;15.90;;;;;;10443731;28;20230;-76
2023/05/31 10:45:36;;;;;;;3.70;2.30;;;26.60;15.20;;;;;;10447886;28;20567;-76
2023/05/31 10:50:54;;;;;;;3.83;2.27;;;26.70;14.90;;;;;;10438449;28;20260;-76
2023/05/31 10:56:04;;;;;;;2.83;2.30;;;26.80;14.80;;;;;;10445314;28;20232;-77
2023/05/31 11:01:08;;;;;;;2.90;2.60;;;26.90;14.50;;;;;;10436648;28;20318;-75
2023/05/31 11:06:14;;;;;;;4.20;2.60;;;27.00;15.20;;;;;;10447446;28;20224;-76
2023/05/31 11:11:28;;;;;;;3.10;2.57;;;27.00;14.80;;;;;;10443581;28;20858;-76
2023/05/31 11:16:33;;;;;;;4.20;2.47;;;27.10;14.60;;;;;;10430058;28;20252;-75
2023/05/31 11:21:51;;;;;;;4.93;2.50;;;27.10;15.70;;;;;;10432833;28;20229;-75
2023/05/31 11:26:55;;;;;;;5.07;2.80;;;27.10;15.20;;;;;;10440862;28;20307;-75
2023/05/31 11:32:01;;;;;;;2.80;2.47;;;27.10;15.50;;;;;;10430834;28;20233;-80
2023/05/31 11:37:06;;;;;;;2.63;2.40;;;27.10;15.50;;;;;;10433492;28;20260;-76
2023/05/31 11:42:11;;;;;;;3.20;2.90;;;27.20;15.50;;;;;;10419342;28;20316;-78
2023/05/31 11:47:20;;;;;;;3.90;2.73;;;27.20;14.90;;;;;;10428649;28;20237;-76
2023/05/31 11:52:24;;;;;;;2.80;2.60;;;27.10;15.00;;;;;;10433019;28;20230;-76
2023/05/31 11:57:28;;;;;;;2.83;2.47;;;27.10;15.40;;;;;;10416882;28;20233;-75
2023/05/31 12:02:31;;;;;;;3.30;2.60;;;27.10;15.30;;;;;;10425457;28;20233;-74
2023/05/31 12:07:35;;;;;;;3.37;3.00;;;27.10;15.40;;;;;;10439619;28;20229;-74
2023/05/31 12:12:40;;;;;;;2.97;2.70;;;27.20;15.30;;;;;;10435843;28;20264;-76
2023/05/31 12:17:45;;;;;;;3.67;3.00;;;27.20;15.20;;;;;;10483006;28;20232;-74
2023/05/31 12:22:49;;;;;;;3.77;3.33;;;27.30;15.30;;;;;;10483054;28;20798;-76
2023/05/31 12:27:53;;;;;;;5.27;3.17;;;27.40;15.30;;;;;;10481638;28;20231;-75
2023/05/31 12:32:58;;;;;;;3.33;3.03;;;27.40;15.60;;;;;;10453707;28;20240;-74
2023/05/31 12:38:03;;;;;;;3.70;3.10;;;27.40;15.30;;;;;;10440454;28;20228;-73
2023/05/31 12:43:06;;;;;;;6.40;3.10;;;27.40;15.30;;;;;;10440538;28;20845;-71
2023/05/31 12:48:11;;;;;;;3.70;3.40;;;27.40;15.50;;;;;;10433596;28;20238;-72
2023/05/31 12:53:16;;;;;;;4.50;3.63;;;27.40;15.50;;;;;;10434239;28;20226;-72
2023/05/31 12:58:19;;;;;;;5.53;3.27;;;27.40;15.60;;;;;;10436996;28;20217;-72
2023/05/31 13:03:23;;;;;;;4.00;3.17;;;27.50;15.70;;;;;;10427751;28;20232;-75
2023/05/31 13:08:27;;;;;;;4.37;3.70;;;27.50;15.40;;;;;;10430371;28;20235;-74
2023/05/31 13:13:30;;;;;;;6.10;3.60;;;27.60;15.50;;;;;;10425889;28;20778;-74
2023/05/31 13:18:34;;;;;;;3.67;3.37;;;27.60;15.60;;;;;;10429599;28;20288;-75
2023/05/31 13:23:38;;;;;;;3.50;3.20;;;27.70;15.60;;;;;;10436809;28;20355;-73
2023/05/31 13:28:41;;;;;;;3.73;3.30;;;27.70;15.40;;;;;;10434963;28;20756;-73
2023/05/31 13:33:46;;;;;;;4.50;3.40;;;27.80;15.40;;;;;;10437519;28;20287;-74
2023/05/31 13:38:52;;;;;;;5.67;3.60;;;27.80;15.10;;;;;;10431492;28;20240;-73
2023/05/31 13:43:55;;;;;;;5.03;3.50;;;27.80;14.90;;;;;;10433332;28;20225;-76
2023/05/31 13:48:58;;;;;;;3.47;3.17;;;27.70;15.10;;;;;;10436106;28;20243;-78
2023/05/31 13:54:03;;;;;;;3.97;3.57;;;27.80;14.90;;;;;;10434309;28;20233;-74
2023/05/31 13:59:06;;;;;;;3.90;3.10;;;27.80;15.00;;;;;;10432981;28;20714;-75
2023/05/31 14:04:10;;;;;;;5.07;3.00;;;27.70;15.00;;;;;;10456519;28;20232;-73
2023/05/31 14:09:14;;;;;;;3.43;3.17;;;27.70;15.00;;;;;;10450454;28;20256;-73
2023/05/31 14:14:17;;;;;;;6.63;3.00;;;27.70;14.80;;;;;;10451042;28;20609;-73
2023/05/31 14:19:21;;;;;;;3.83;3.20;;;27.80;14.90;;;;;;10453698;28;20221;-73
2023/05/31 14:24:26;;;;;;;3.67;3.20;;;27.80;14.90;;;;;;10424710;28;20304;-75
2023/05/31 14:29:29;;;;;;;3.60;3.30;;;28.00;14.90;;;;;;10442603;28;20240;-73
2023/05/31 14:34:32;;;;;;;4.70;3.23;;;28.00;14.80;;;;;;10429388;28;20252;-74
2023/05/31 14:39:37;;;;;;;3.43;2.87;;;28.00;14.60;;;;;;10434505;28;20232;-74
2023/05/31 14:44:41;;;;;;;3.50;3.20;;;28.10;14.30;;;;;;10452362;28;20232;-72
2023/05/31 14:49:44;;;;;;;4.30;2.80;;;28.10;14.30;;;;;;10456174;28;20830;-73
2023/05/31 14:54:48;;;;;;;3.23;2.87;;;28.20;14.50;;;;;;10452082;28;20229;-73
2023/05/31 14:59:51;;;;;;;3.40;3.10;;;28.30;14.20;;;;;;10438628;28;20232;-70
2023/05/31 15:04:55;;;;;;;3.27;2.93;;;28.30;14.50;;;;;;10468135;28;20792;-72
2023/05/31 15:09:59;;;;;;;3.63;3.10;;;28.40;14.40;;;;;;10427884;28;20474;-71
2023/05/31 15:15:03;;;;;;;3.27;3.00;;;28.50;14.20;;;;;;10467671;28;20235;-77
2023/05/31 15:20:07;;;;;;;4.67;3.33;;;28.50;14.40;;;;;;10428565;28;20761;-77
2023/05/31 15:25:12;;;;;;;3.53;2.80;;;28.60;14.10;;;;;;10439433;28;20255;-74
2023/05/31 15:30:15;;;;;;;3.17;2.90;;;28.60;14.00;;;;;;10441712;28;20236;-73
2023/05/31 15:35:19;;;;;;;4.67;3.30;;;28.60;14.00;;;;;;10435988;28;20717;-73
2023/05/31 15:40:23;;;;;;;3.53;3.00;;;28.60;14.00;;;;;;10430975;28;20929;-73
2023/05/31 15:45:26;;;;;;;3.60;3.30;;;28.60;13.50;;;;;;10444687;28;20639;-76
2023/05/31 15:50:29;;;;;;;4.07;3.43;;;28.60;13.90;;;;;;10445052;28;20316;-76
2023/05/31 15:55:34;;;;;;;4.00;3.60;;;28.60;13.80;;;;;;10415053;28;20240;-76
2023/05/31 16:00:38;;;;;;;4.07;3.40;;;28.70;13.60;;;;;;10403564;28;20236;-77
2023/05/31 16:05:41;;;;;;;4.40;3.63;;;28.70;13.70;;;;;;10419424;28;20635;-76
2023/05/31 16:10:45;;;;;;;4.23;3.30;;;28.70;13.60;;;;;;10444911;28;20236;-77
2023/05/31 16:15:49;;;;;;;3.53;3.23;;;28.70;13.40;;;;;;10443494;28;20243;-77
2023/05/31 16:20:52;;;;;;;4.73;3.40;;;28.70;13.70;;;;;;10445210;28;20233;-77
2023/05/31 16:25:57;;;;;;;3.77;3.33;;;28.70;13.60;;;;;;10445579;28;20221;-76
2023/05/31 16:31:01;;;;;;;3.47;3.17;;;28.60;13.30;;;;;;10446685;28;20320;-77
2023/05/31 16:36:08;;;;;;;3.50;3.20;;;28.60;13.70;;;;;;10445317;28;20936;-76
2023/05/31 16:41:12;;;;;;;3.60;3.20;;;28.60;13.50;;;;;;10445609;28;20247;-77
2023/05/31 16:46:17;;;;;;;4.17;3.10;;;28.70;13.60;;;;;;10443853;28;20229;-76
2023/05/31 16:51:20;;;;;;;3.53;3.23;;;28.80;14.10;;;;;;10444218;28;20286;-77
2023/05/31 16:56:25;;;;;;;3.40;3.10;;;28.90;13.30;;;;;;10443572;28;20233;-76
2023/05/31 17:01:29;;;;;;;4.53;3.20;;;28.90;13.00;;;;;;10443402;28;20241;-76
2023/05/31 17:06:32;;;;;;;3.67;3.37;;;28.90;13.20;;;;;;10443419;28;20286;-76
2023/05/31 17:11:38;;;;;;;3.33;3.10;;;29.00;13.30;;;;;;10443429;28;20278;-76
2023/05/31 17:16:43;;;;;;;5.17;3.40;;;28.90;13.20;;;;;;10442310;28;20624;-76
2023/05/31 17:21:46;;;;;;;3.80;3.33;;;29.00;13.50;;;;;;10443993;28;20777;-76
2023/05/31 17:26:53;;;;;;;3.73;3.27;;;29.00;13.20;;;;;;10443792;28;20478;-77
2023/05/31 17:31:58;;;;;;;5.43;3.40;;;29.00;12.90;;;;;;10418164;28;20229;-77
2023/05/31 17:37:01;;;;;;;3.57;3.27;;;29.00;12.90;;;;;;10433288;28;20233;-73
2023/05/31 17:42:06;;;;;;;4.03;3.63;;;28.90;13.10;;;;;;10447139;28;20229;-74
2023/05/31 17:47:09;;;;;;;3.67;3.37;;;28.90;12.90;;;;;;10445413;28;20232;-73
2023/05/31 17:52:13;;;;;;;3.57;3.27;;;28.80;12.90;;;;;;10450651;28;20750;-72
2023/05/31 17:57:17;;;;;;;3.80;3.30;;;28.80;12.90;;;;;;10446033;28;20236;-72
2023/05/31 18:02:20;;;;;;;4.00;3.30;;;28.80;13.00;;;;;;10448251;28;20229;-73
2023/05/31 18:07:24;;;;;;;3.33;3.03;;;28.80;13.10;;;;;;10451257;28;20885;-72
2023/05/31 18:12:28;;;;;;;5.77;3.20;;;28.70;13.10;;;;;;10442520;28;20235;-72
2023/05/31 18:17:31;;;;;;;3.87;3.57;;;28.70;13.20;;;;;;10428994;28;20604;-73
2023/05/31 18:22:35;;;;;;;3.50;3.20;;;28.60;13.30;;;;;;10427498;28;20930;-74
2023/05/31 18:27:39;;;;;;;3.93;3.53;;;28.50;13.40;;;;;;10442582;28;20257;-74
2023/05/31 18:32:43;;;;;;;3.63;3.33;;;28.50;13.70;;;;;;10440567;28;20349;-74
2023/05/31 18:37:46;;;;;;;3.80;3.50;;;28.40;14.00;;;;;;10446989;28;20252;-73
2023/05/31 18:42:51;;;;;;;4.00;3.70;;;28.30;14.10;;;;;;10429889;28;20229;-74
2023/05/31 18:47:54;;;;;;;4.87;3.67;;;28.20;14.40;;;;;;10435151;28;20260;-74
2023/05/31 18:52:58;;;;;;;4.17;3.77;;;28.00;14.30;;;;;;10448289;28;20253;-72
2023/05/31 18:58:02;;;;;;;4.10;3.80;;;27.80;14.30;;;;;;10433241;28;20234;-74
2023/05/31 19:03:05;;;;;;;4.83;3.50;;;27.60;14.60;;;;;;10432461;28;20230;-74
2023/05/31 19:08:09;;;;;;;3.80;3.50;;;27.40;14.50;;;;;;10451329;28;20228;-73
2023/05/31 19:13:14;;;;;;;4.10;3.67;;;27.20;14.90;;;;;;10433599;28;20710;-72
2023/05/31 19:18:17;;;;;;;4.10;3.73;;;27.00;15.10;;;;;;10441702;28;20316;-72
2023/05/31 19:23:22;;;;;;;3.20;3.00;;;26.90;15.10;;;;;;10451243;28;20246;-71
2023/05/31 19:28:26;;;;;;;4.93;3.17;;;26.70;15.30;;;;;;10441646;28;20229;-72
2023/05/31 19:33:29;;;;;;;4.67;3.60;;;26.60;15.60;;;;;;10431713;28;21021;-72
2023/05/31 19:38:33;;;;;;;5.13;3.40;;;26.50;15.60;;;;;;10451054;28;20768;-72
2023/05/31 19:43:38;;;;;;;4.37;3.60;;;26.40;15.90;;;;;;10445835;28;20240;-72
2023/05/31 19:48:41;;;;;;;3.77;3.33;;;26.30;15.90;;;;;;10444072;28;20313;-72
2023/05/31 19:53:44;;;;;;;4.53;3.30;;;26.20;16.00;;;;;;10448856;28;20591;-72
2023/05/31 19:58:49;;;;;;;4.23;3.47;;;26.10;16.00;;;;;;10445492;28;20236;-77
2023/05/31 20:03:52;;;;;;;4.10;3.50;;;26.00;16.40;;;;;;10452700;28;20229;-77
2023/05/31 20:08:56;;;;;;;4.77;3.17;;;25.90;16.40;;;;;;10458720;28;20239;-77
2023/05/31 20:14:00;;;;;;;3.70;3.33;;;25.70;16.40;;;;;;10434734;28;20231;-77
2023/05/31 20:19:05;;;;;;;4.30;3.43;;;25.70;16.60;;;;;;10465592;28;20251;-77
2023/05/31 20:24:08;;;;;;;4.80;3.87;;;25.60;16.70;;;;;;10433837;28;20300;-77
2023/05/31 20:29:13;;;;;;;5.47;3.47;;;25.50;16.80;;;;;;10430920;28;20218;-77
2023/05/31 20:34:16;;;;;;;3.73;3.43;;;25.40;17.10;;;;;;10459348;28;20311;-76
2023/05/31 20:39:21;;;;;;;3.60;3.30;;;25.30;16.80;;;;;;10490679;28;20238;-77
2023/05/31 20:44:25;;;;;;;4.50;3.47;;;25.20;16.90;;;;;;10480814;28;20229;-77
2023/05/31 20:49:28;;;;;;;3.63;3.33;;;25.10;17.10;;;;;;10449104;28;20252;-77
2023/05/31 20:54:33;;;;;;;5.13;3.70;;;25.00;17.10;;;;;;10442287;28;20244;-77
2023/05/31 20:59:38;;;;;;;4.10;3.70;;;24.90;17.30;;;;;;10453596;28;20229;-77
2023/05/31 21:04:41;;;;;;;3.80;3.47;;;24.70;17.40;;;;;;10443392;28;20221;-77
2023/05/31 21:09:44;;;;;;;3.87;3.40;;;24.60;17.20;;;;;;10430837;28;20239;-77
2023/05/31 21:14:49;;;;;;;3.93;3.57;;;24.40;17.30;;;;;;10452931;28;20305;-77
2023/05/31 21:19:52;;;;;;;4.27;3.73;;;24.30;17.70;;;;;;10440669;28;20708;-77
2023/05/31 21:24:55;;;;;;;4.37;3.83;;;24.20;17.90;;;;;;10461723;28;20291;-77
2023/05/31 21:30:00;;;;;;;5.13;3.87;;;24.10;18.00;;;;;;10470293;28;20850;-77
2023/05/31 21:35:03;;;;;;;5.07;4.20;;;23.90;17.80;;;;;;10467708;28;20308;-77
2023/05/31 21:40:08;;;;;;;5.37;3.87;;;23.80;17.70;;;;;;10452210;28;20248;-77
2023/05/31 21:45:13;;;;;;;4.27;3.87;;;23.70;18.20;;;;;;10449351;28;20221;-78
2023/05/31 21:50:16;;;;;;;3.60;3.20;;;23.50;18.00;;;;;;10434122;28;20225;-77
2023/05/31 21:55:20;;;;;;;6.43;3.70;;;23.40;17.80;;;;;;10443656;28;20275;-78
2023/05/31 22:00:24;;;;;;;5.00;3.50;;;23.30;18.00;;;;;;10437942;28;20239;-77
2023/05/31 22:05:29;;;;;;;4.37;3.20;;;23.20;18.50;;;;;;10446689;28;20232;-78
2023/05/31 22:10:32;;;;;;;3.50;3.20;;;23.00;18.50;;;;;;10451235;28;20229;-77
2023/05/31 22:15:37;;;;;;;5.07;3.50;;;23.00;18.70;;;;;;10453996;28;20235;-77
2023/05/31 22:20:40;;;;;;;4.03;3.40;;;22.90;18.80;;;;;;10446449;28;20311;-77
2023/05/31 22:25:43;;;;;;;6.27;3.40;;;22.90;18.90;;;;;;10472870;28;20243;-77
2023/05/31 22:30:48;;;;;;;3.87;3.30;;;22.80;18.90;;;;;;10466127;28;20920;-77
2023/05/31 22:35:52;;;;;;;4.67;3.70;;;22.80;19.40;;;;;;10467540;28;20290;-77
2023/05/31 22:40:55;;;;;;;5.30;3.80;;;22.70;19.20;;;;;;10471446;28;20606;-77
2023/05/31 22:45:59;;;;;;;4.00;3.60;;;22.60;19.30;;;;;;10454937;28;20315;-79
2023/05/31 22:51:03;;;;;;;3.80;3.40;;;22.40;19.60;;;;;;10446964;28;20255;-77
2023/05/31 22:56:06;;;;;;;4.83;3.97;;;22.30;19.50;;;;;;10450980;28;20239;-77
2023/05/31 23:01:11;;;;;;;4.50;3.70;;;22.10;19.70;;;;;;10486438;28;20674;-77
2023/05/31 23:06:16;;;;;;;3.83;3.50;;;22.00;20.00;;;;;;10450871;28;20232;-77
2023/05/31 23:11:21;;;;;;;4.93;3.80;;;21.90;20.10;;;;;;10449057;28;20279;-77
2023/05/31 23:16:26;;;;;;;3.77;3.47;;;21.80;20.00;;;;;;10470424;28;20224;-77
2023/05/31 23:21:30;;;;;;;3.93;3.47;;;21.70;20.30;;;;;;10430591;28;20256;-77
2023/05/31 23:26:34;;;;;;;3.70;3.30;;;21.70;20.30;;;;;;10447575;28;20224;-77
2023/05/31 23:31:38;;;;;;;4.83;3.67;;;21.60;20.30;;;;;;10451484;28;20229;-77
2023/05/31 23:36:42;;;;;;;3.90;3.50;;;21.50;20.60;;;;;;10436087;28;20229;-77
2023/05/31 23:41:45;;;;;;;3.73;3.33;;;21.50;20.40;;;;;;10443906;28;20304;-77
2023/05/31 23:46:49;;;;;;;4.40;3.50;;;21.40;20.50;;;;;;10453943;28;20904;-78
2023/05/31 23:51:52;;;;;;;4.00;3.50;;;21.30;20.80;;;;;;10476683;28;20232;-78
2023/05/31 23:56:55;;;;;;;3.60;3.30;;;21.20;20.60;;;;;;10447326;28;20282;-78
